sensor_id;sensor_type;location;lat;lon;timestamp;P1;durP1;ratioP1;P2;durP2;ratioP2
71679;SDS011;59512;42.662;23.254;2023-04-01T00:00:17;20.10;;;8.47;;
71679;SDS011;59512;42.662;23.254;2023-04-01T00:02:43;18.33;;;8.48;;
71679;SDS011;59512;42.662;23.254;2023-04-01T00:05:09;16.27;;;8.93;;
71679;SDS011;59512;42.662;23.254;2023-04-01T00:07:38;21.77;;;10.32;;
71679;SDS011;59512;42.662;23.254;2023-04-01T00:10:07;20.23;;;9.57;;
71679;SDS011;59512;42.662;23.254;2023-04-01T00:12:34;18.33;;;10.53;;
71679;SDS011;59512;42.662;23.254;2023-04-01T00:15:00;18.92;;;10.02;;
71679;SDS011;59512;42.662;23.254;2023-04-01T00:17:26;20.55;;;10.95;;
71679;SDS011;59512;42.662;23.254;2023-04-01T00:19:54;23.77;;;11.43;;
71679;SDS011;59512;42.662;23.254;2023-04-01T00:22:19;20.90;;;10.70;;
71679;SDS011;59512;42.662;23.254;2023-04-01T00:24:45;18.93;;;10.13;;
71679;SDS011;59512;42.662;23.254;2023-04-01T00:27:10;21.17;;;10.93;;
71679;SDS011;59512;42.662;23.254;2023-04-01T00:29:36;20.27;;;10.40;;
71679;SDS011;59512;42.662;23.254;2023-04-01T00:32:01;26.37;;;12.53;;
71679;SDS011;59512;42.662;23.254;2023-04-01T00:34:26;24.57;;;12.77;;
71679;SDS011;59512;42.662;23.254;2023-04-01T00:36:52;28.63;;;13.10;;
71679;SDS011;59512;42.662;23.254;2023-04-01T00:39:18;29.58;;;14.40;;
71679;SDS011;59512;42.662;23.254;2023-04-01T00:41:44;29.50;;;14.63;;
71679;SDS011;59512;42.662;23.254;2023-04-01T00:46:57;32.53;;;15.67;;
71679;SDS011;59512;42.662;23.254;2023-04-01T00:49:23;29.85;;;15.60;;
71679;SDS011;59512;42.662;23.254;2023-04-01T00:51:55;29.05;;;16.27;;
71679;SDS011;59512;42.662;23.254;2023-04-01T00:54:22;30.33;;;17.13;;
71679;SDS011;59512;42.662;23.254;2023-04-01T00:56:50;27.73;;;15.70;;
71679;SDS011;59512;42.662;23.254;2023-04-01T00:59:22;27.20;;;14.90;;
71679;SDS011;59512;42.662;23.254;2023-04-01T01:01:50;28.17;;;14.65;;
71679;SDS011;59512;42.662;23.254;2023-04-01T01:04:34;32.15;;;15.50;;
71679;SDS011;59512;42.662;23.254;2023-04-01T01:10:02;29.33;;;14.07;;
71679;SDS011;59512;42.662;23.254;2023-04-01T01:12:31;23.75;;;11.73;;
71679;SDS011;59512;42.662;23.254;2023-04-01T01:17:57;24.88;;;11.35;;
71679;SDS011;59512;42.662;23.254;2023-04-01T01:26:45;23.25;;;12.02;;
71679;SDS011;59512;42.662;23.254;2023-04-01T01:37:35;20.42;;;10.90;;
71679;SDS011;59512;42.662;23.254;2023-04-01T01:40:04;21.45;;;10.75;;
71679;SDS011;59512;42.662;23.254;2023-04-01T01:42:31;18.70;;;10.48;;
71679;SDS011;59512;42.662;23.254;2023-04-01T01:44:59;19.10;;;8.50;;
71679;SDS011;59512;42.662;23.254;2023-04-01T01:47:25;18.80;;;8.77;;
71679;SDS011;59512;42.662;23.254;2023-04-01T01:49:50;16.77;;;9.35;;
71679;SDS011;59512;42.662;23.254;2023-04-01T01:52:17;17.35;;;7.75;;
71679;SDS011;59512;42.662;23.254;2023-04-01T01:54:50;16.93;;;8.57;;
71679;SDS011;59512;42.662;23.254;2023-04-01T01:57:17;16.35;;;8.20;;
71679;SDS011;59512;42.662;23.254;2023-04-01T01:59:45;13.73;;;7.57;;
71679;SDS011;59512;42.662;23.254;2023-04-01T02:02:12;15.35;;;6.82;;
71679;SDS011;59512;42.662;23.254;2023-04-01T02:04:38;18.40;;;7.90;;
71679;SDS011;59512;42.662;23.254;2023-04-01T02:07:10;15.45;;;7.63;;
71679;SDS011;59512;42.662;23.254;2023-04-01T02:09:39;15.20;;;7.35;;
71679;SDS011;59512;42.662;23.254;2023-04-01T02:12:08;18.93;;;7.67;;
71679;SDS011;59512;42.662;23.254;2023-04-01T02:17:29;17.50;;;7.22;;
71679;SDS011;59512;42.662;23.254;2023-04-01T02:20:11;14.57;;;6.85;;
71679;SDS011;59512;42.662;23.254;2023-04-01T02:22:44;20.23;;;8.03;;
71679;SDS011;59512;42.662;23.254;2023-04-01T02:25:30;15.52;;;7.55;;
71679;SDS011;59512;42.662;23.254;2023-04-01T02:27:58;17.05;;;7.53;;
71679;SDS011;59512;42.662;23.254;2023-04-01T02:30:25;16.75;;;7.93;;
71679;SDS011;59512;42.662;23.254;2023-04-01T02:32:52;17.85;;;8.48;;
71679;SDS011;59512;42.662;23.254;2023-04-01T02:35:17;24.23;;;8.00;;
71679;SDS011;59512;42.662;23.254;2023-04-01T02:37:44;19.48;;;8.63;;
71679;SDS011;59512;42.662;23.254;2023-04-01T02:40:13;16.27;;;8.23;;
71679;SDS011;59512;42.662;23.254;2023-04-01T02:42:40;19.67;;;8.10;;
71679;SDS011;59512;42.662;23.254;2023-04-01T02:45:05;17.97;;;7.30;;
71679;SDS011;59512;42.662;23.254;2023-04-01T02:47:31;17.60;;;7.60;;
71679;SDS011;59512;42.662;23.254;2023-04-01T02:49:57;16.67;;;7.18;;
71679;SDS011;59512;42.662;23.254;2023-04-01T02:52:25;13.93;;;6.70;;
71679;SDS011;59512;42.662;23.254;2023-04-01T02:54:51;12.75;;;6.30;;
71679;SDS011;59512;42.662;23.254;2023-04-01T02:57:16;13.52;;;6.43;;
71679;SDS011;59512;42.662;23.254;2023-04-01T02:59:42;13.30;;;6.50;;
71679;SDS011;59512;42.662;23.254;2023-04-01T03:02:07;17.30;;;6.53;;
71679;SDS011;59512;42.662;23.254;2023-04-01T03:04:33;13.43;;;6.80;;
71679;SDS011;59512;42.662;23.254;2023-04-01T03:06:58;12.63;;;5.68;;
71679;SDS011;59512;42.662;23.254;2023-04-01T03:09:24;17.23;;;7.40;;
71679;SDS011;59512;42.662;23.254;2023-04-01T03:11:49;15.90;;;6.27;;
71679;SDS011;59512;42.662;23.254;2023-04-01T03:14:15;15.37;;;6.63;;
71679;SDS011;59512;42.662;23.254;2023-04-01T03:16:40;15.65;;;7.70;;
71679;SDS011;59512;42.662;23.254;2023-04-01T03:19:05;20.88;;;7.82;;
71679;SDS011;59512;42.662;23.254;2023-04-01T03:21:31;12.37;;;2.93;;
71679;SDS011;59512;42.662;23.254;2023-04-01T03:23:56;9.97;;;4.43;;
71679;SDS011;59512;42.662;23.254;2023-04-01T03:26:22;10.60;;;2.77;;
71679;SDS011;59512;42.662;23.254;2023-04-01T03:28:47;8.50;;;2.03;;
71679;SDS011;59512;42.662;23.254;2023-04-01T03:31:13;8.40;;;2.20;;
71679;SDS011;59512;42.662;23.254;2023-04-01T03:33:39;7.78;;;2.00;;
71679;SDS011;59512;42.662;23.254;2023-04-01T03:36:05;8.77;;;2.37;;
71679;SDS011;59512;42.662;23.254;2023-04-01T03:38:32;9.32;;;2.53;;
71679;SDS011;59512;42.662;23.254;2023-04-01T03:40:58;11.43;;;2.10;;
71679;SDS011;59512;42.662;23.254;2023-04-01T03:43:24;7.90;;;2.17;;
71679;SDS011;59512;42.662;23.254;2023-04-01T03:45:50;13.10;;;3.92;;
71679;SDS011;59512;42.662;23.254;2023-04-01T03:48:16;9.30;;;2.77;;
71679;SDS011;59512;42.662;23.254;2023-04-01T03:50:41;9.93;;;3.50;;
71679;SDS011;59512;42.662;23.254;2023-04-01T03:53:07;11.90;;;3.33;;
71679;SDS011;59512;42.662;23.254;2023-04-01T03:55:33;9.98;;;3.80;;
71679;SDS011;59512;42.662;23.254;2023-04-01T03:58:00;8.93;;;2.63;;
71679;SDS011;59512;42.662;23.254;2023-04-01T04:00:27;9.70;;;3.10;;
71679;SDS011;59512;42.662;23.254;2023-04-01T04:02:53;10.57;;;3.83;;
71679;SDS011;59512;42.662;23.254;2023-04-01T04:05:20;11.00;;;4.07;;
71679;SDS011;59512;42.662;23.254;2023-04-01T04:07:46;13.13;;;4.85;;
71679;SDS011;59512;42.662;23.254;2023-04-01T04:10:11;12.17;;;4.60;;
71679;SDS011;59512;42.662;23.254;2023-04-01T04:12:37;13.57;;;5.20;;
71679;SDS011;59512;42.662;23.254;2023-04-01T04:15:02;10.80;;;4.37;;
71679;SDS011;59512;42.662;23.254;2023-04-01T04:17:28;11.55;;;4.40;;
71679;SDS011;59512;42.662;23.254;2023-04-01T04:19:53;14.07;;;4.87;;
71679;SDS011;59512;42.662;23.254;2023-04-01T04:22:19;13.13;;;4.73;;
71679;SDS011;59512;42.662;23.254;2023-04-01T04:24:44;17.40;;;6.03;;
71679;SDS011;59512;42.662;23.254;2023-04-01T04:27:10;11.98;;;5.63;;
71679;SDS011;59512;42.662;23.254;2023-04-01T04:29:35;12.23;;;5.17;;
71679;SDS011;59512;42.662;23.254;2023-04-01T04:32:00;16.77;;;8.10;;
71679;SDS011;59512;42.662;23.254;2023-04-01T04:34:26;16.03;;;6.67;;
71679;SDS011;59512;42.662;23.254;2023-04-01T04:36:51;14.13;;;6.77;;
71679;SDS011;59512;42.662;23.254;2023-04-01T04:39:17;16.85;;;7.80;;
71679;SDS011;59512;42.662;23.254;2023-04-01T04:41:42;16.10;;;8.27;;
71679;SDS011;59512;42.662;23.254;2023-04-01T04:44:08;14.43;;;7.17;;
71679;SDS011;59512;42.662;23.254;2023-04-01T04:46:33;15.10;;;8.07;;
71679;SDS011;59512;42.662;23.254;2023-04-01T04:48:59;14.68;;;7.65;;
71679;SDS011;59512;42.662;23.254;2023-04-01T04:51:24;18.07;;;8.73;;
71679;SDS011;59512;42.662;23.254;2023-04-01T04:53:50;16.87;;;8.70;;
71679;SDS011;59512;42.662;23.254;2023-04-01T04:56:22;16.17;;;8.75;;
71679;SDS011;59512;42.662;23.254;2023-04-01T04:58:49;17.90;;;9.83;;
71679;SDS011;59512;42.662;23.254;2023-04-01T05:01:14;19.50;;;10.82;;
71679;SDS011;59512;42.662;23.254;2023-04-01T05:03:41;15.90;;;8.53;;
71679;SDS011;59512;42.662;23.254;2023-04-01T05:06:07;17.95;;;10.52;;
71679;SDS011;59512;42.662;23.254;2023-04-01T05:08:33;25.77;;;15.35;;
71679;SDS011;59512;42.662;23.254;2023-04-01T05:11:00;20.02;;;12.00;;
71679;SDS011;59512;42.662;23.254;2023-04-01T05:13:26;20.80;;;11.33;;
71679;SDS011;59512;42.662;23.254;2023-04-01T05:15:51;19.15;;;10.20;;
71679;SDS011;59512;42.662;23.254;2023-04-01T05:18:17;18.20;;;10.50;;
71679;SDS011;59512;42.662;23.254;2023-04-01T05:20:49;17.55;;;8.85;;
71679;SDS011;59512;42.662;23.254;2023-04-01T05:23:16;14.87;;;6.83;;
71679;SDS011;59512;42.662;23.254;2023-04-01T05:25:42;17.75;;;7.78;;
71679;SDS011;59512;42.662;23.254;2023-04-01T05:28:08;18.37;;;8.00;;
71679;SDS011;59512;42.662;23.254;2023-04-01T05:30:33;49.63;;;29.80;;
71679;SDS011;59512;42.662;23.254;2023-04-01T05:32:59;24.83;;;13.27;;
71679;SDS011;59512;42.662;23.254;2023-04-01T05:35:25;22.60;;;14.07;;
71679;SDS011;59512;42.662;23.254;2023-04-01T05:37:51;28.83;;;13.75;;
71679;SDS011;59512;42.662;23.254;2023-04-01T05:40:16;24.20;;;14.13;;
71679;SDS011;59512;42.662;23.254;2023-04-01T05:42:42;24.00;;;13.15;;
71679;SDS011;59512;42.662;23.254;2023-04-01T05:45:08;36.40;;;19.13;;
71679;SDS011;59512;42.662;23.254;2023-04-01T05:47:34;30.05;;;15.02;;
71679;SDS011;59512;42.662;23.254;2023-04-01T05:49:59;25.27;;;12.40;;
71679;SDS011;59512;42.662;23.254;2023-04-01T05:52:25;29.33;;;15.40;;
71679;SDS011;59512;42.662;23.254;2023-04-01T05:54:50;21.23;;;12.52;;
71679;SDS011;59512;42.662;23.254;2023-04-01T05:57:16;19.83;;;11.73;;
71679;SDS011;59512;42.662;23.254;2023-04-01T05:59:41;35.87;;;21.70;;
71679;SDS011;59512;42.662;23.254;2023-04-01T06:02:08;86.97;;;53.93;;
71679;SDS011;59512;42.662;23.254;2023-04-01T06:04:37;32.92;;;18.30;;
71679;SDS011;59512;42.662;23.254;2023-04-01T06:07:11;53.95;;;31.80;;
71679;SDS011;59512;42.662;23.254;2023-04-01T06:09:37;23.15;;;11.82;;
71679;SDS011;59512;42.662;23.254;2023-04-01T06:28:45;18.42;;;7.03;;
71679;SDS011;59512;42.662;23.254;2023-04-01T06:33:35;20.30;;;8.20;;
71679;SDS011;59512;42.662;23.254;2023-04-01T06:36:19;16.98;;;7.88;;
71679;SDS011;59512;42.662;23.254;2023-04-01T06:39:00;13.90;;;6.63;;
71679;SDS011;59512;42.662;23.254;2023-04-01T06:47:53;19.97;;;8.80;;
71679;SDS011;59512;42.662;23.254;2023-04-01T06:50:48;15.00;;;6.90;;
71679;SDS011;59512;42.662;23.254;2023-04-01T06:56:14;15.32;;;7.75;;
71679;SDS011;59512;42.662;23.254;2023-04-01T06:58:47;19.77;;;7.25;;
71679;SDS011;59512;42.662;23.254;2023-04-01T07:01:26;13.57;;;6.23;;
71679;SDS011;59512;42.662;23.254;2023-04-01T07:09:31;19.05;;;8.20;;
71679;SDS011;59512;42.662;23.254;2023-04-01T07:12:00;16.35;;;6.22;;
71679;SDS011;59512;42.662;23.254;2023-04-01T07:14:32;12.93;;;5.70;;
71679;SDS011;59512;42.662;23.254;2023-04-01T07:17:04;16.13;;;5.72;;
71679;SDS011;59512;42.662;23.254;2023-04-01T07:22:06;12.63;;;6.40;;
71679;SDS011;59512;42.662;23.254;2023-04-01T07:24:41;13.85;;;5.93;;
71679;SDS011;59512;42.662;23.254;2023-04-01T07:27:10;12.97;;;6.50;;
71679;SDS011;59512;42.662;23.254;2023-04-01T07:29:36;12.70;;;6.32;;
71679;SDS011;59512;42.662;23.254;2023-04-01T07:43:18;13.32;;;5.13;;
71679;SDS011;59512;42.662;23.254;2023-04-01T07:48:59;13.32;;;4.93;;
71679;SDS011;59512;42.662;23.254;2023-04-01T07:51:31;21.25;;;6.68;;
71679;SDS011;59512;42.662;23.254;2023-04-01T07:54:20;16.80;;;6.57;;
71679;SDS011;59512;42.662;23.254;2023-04-01T08:04:45;14.82;;;6.57;;
71679;SDS011;59512;42.662;23.254;2023-04-01T08:10:22;17.45;;;6.35;;
71679;SDS011;59512;42.662;23.254;2023-04-01T08:18:27;16.40;;;6.28;;
71679;SDS011;59512;42.662;23.254;2023-04-01T08:21:02;16.00;;;5.90;;
71679;SDS011;59512;42.662;23.254;2023-04-01T08:23:31;15.20;;;5.40;;
71679;SDS011;59512;42.662;23.254;2023-04-01T08:28:44;16.35;;;5.90;;
71679;SDS011;59512;42.662;23.254;2023-04-01T08:34:03;15.10;;;6.63;;
71679;SDS011;59512;42.662;23.254;2023-04-01T08:36:41;13.02;;;7.00;;
71679;SDS011;59512;42.662;23.254;2023-04-01T08:42:08;13.73;;;7.03;;
71679;SDS011;59512;42.662;23.254;2023-04-01T08:56:46;16.80;;;6.55;;
71679;SDS011;59512;42.662;23.254;2023-04-01T09:04:51;24.85;;;12.95;;
71679;SDS011;59512;42.662;23.254;2023-04-01T09:48:17;9.60;;;2.60;;
71679;SDS011;59512;42.662;23.254;2023-04-01T09:50:52;9.50;;;2.30;;
71679;SDS011;59512;42.662;23.254;2023-04-01T09:53:45;7.35;;;2.55;;
71679;SDS011;59512;42.662;23.254;2023-04-01T10:08:07;7.82;;;1.75;;
71679;SDS011;59512;42.662;23.254;2023-04-01T10:18:40;10.40;;;1.98;;
71679;SDS011;59512;42.662;23.254;2023-04-01T10:23:57;9.88;;;2.55;;
71679;SDS011;59512;42.662;23.254;2023-04-01T10:45:04;9.90;;;2.23;;
71679;SDS011;59512;42.662;23.254;2023-04-01T11:01:16;7.93;;;1.98;;
71679;SDS011;59512;42.662;23.254;2023-04-01T11:12:21;6.50;;;1.92;;
71679;SDS011;59512;42.662;23.254;2023-04-01T11:18:24;8.07;;;1.97;;
71679;SDS011;59512;42.662;23.254;2023-04-01T11:29:04;8.15;;;2.00;;
71679;SDS011;59512;42.662;23.254;2023-04-01T11:37:44;7.17;;;2.27;;
71679;SDS011;59512;42.662;23.254;2023-04-01T11:45:20;8.55;;;2.00;;
71679;SDS011;59512;42.662;23.254;2023-04-01T11:48:03;8.07;;;2.65;;
71679;SDS011;59512;42.662;23.254;2023-04-01T11:51:01;13.93;;;3.20;;
71679;SDS011;59512;42.662;23.254;2023-04-01T12:02:15;11.88;;;4.45;;
71679;SDS011;59512;42.662;23.254;2023-04-01T12:04:48;9.60;;;3.80;;
71679;SDS011;59512;42.662;23.254;2023-04-01T12:10:38;13.38;;;4.65;;
71679;SDS011;59512;42.662;23.254;2023-04-01T12:13:25;13.55;;;5.13;;
71679;SDS011;59512;42.662;23.254;2023-04-01T12:23:53;14.52;;;5.63;;
71679;SDS011;59512;42.662;23.254;2023-04-01T12:36:17;11.70;;;5.40;;
71679;SDS011;59512;42.662;23.254;2023-04-01T12:41:32;9.02;;;4.13;;
71679;SDS011;59512;42.662;23.254;2023-04-01T12:52:10;12.60;;;6.70;;
71679;SDS011;59512;42.662;23.254;2023-04-01T13:00:23;11.37;;;6.13;;
71679;SDS011;59512;42.662;23.254;2023-04-01T13:06:07;10.00;;;4.25;;
71679;SDS011;59512;42.662;23.254;2023-04-01T13:11:41;13.88;;;6.97;;
71679;SDS011;59512;42.662;23.254;2023-04-01T13:17:23;10.73;;;5.10;;
71679;SDS011;59512;42.662;23.254;2023-04-01T13:19:53;7.47;;;3.75;;
71679;SDS011;59512;42.662;23.254;2023-04-01T13:25:17;5.82;;;1.90;;
71679;SDS011;59512;42.662;23.254;2023-04-01T13:28:10;5.57;;;1.60;;
71679;SDS011;59512;42.662;23.254;2023-04-01T13:33:30;5.72;;;1.77;;
71679;SDS011;59512;42.662;23.254;2023-04-01T13:44:22;4.90;;;1.42;;
71679;SDS011;59512;42.662;23.254;2023-04-01T14:00:55;5.38;;;1.60;;
71679;SDS011;59512;42.662;23.254;2023-04-01T14:11:22;4.40;;;1.25;;
71679;SDS011;59512;42.662;23.254;2023-04-01T14:30:38;5.80;;;1.60;;
71679;SDS011;59512;42.662;23.254;2023-04-01T14:33:30;5.20;;;1.70;;
71679;SDS011;59512;42.662;23.254;2023-04-01T14:38:47;4.93;;;1.67;;
71679;SDS011;59512;42.662;23.254;2023-04-01T14:49:15;4.03;;;1.10;;
71679;SDS011;59512;42.662;23.254;2023-04-01T14:51:45;4.55;;;1.30;;
71679;SDS011;59512;42.662;23.254;2023-04-01T14:56:37;4.75;;;1.35;;
71679;SDS011;59512;42.662;23.254;2023-04-01T14:59:28;4.28;;;1.30;;
71679;SDS011;59512;42.662;23.254;2023-04-01T15:01:58;5.20;;;1.38;;
71679;SDS011;59512;42.662;23.254;2023-04-01T15:13:15;7.00;;;2.75;;
71679;SDS011;59512;42.662;23.254;2023-04-01T15:24:06;7.17;;;1.70;;
71679;SDS011;59512;42.662;23.254;2023-04-01T15:26:57;7.60;;;1.80;;
71679;SDS011;59512;42.662;23.254;2023-04-01T15:45:16;12.80;;;6.03;;
71679;SDS011;59512;42.662;23.254;2023-04-01T15:47:45;6.70;;;1.80;;
71679;SDS011;59512;42.662;23.254;2023-04-01T15:50:22;6.50;;;1.40;;
71679;SDS011;59512;42.662;23.254;2023-04-01T15:53:13;3.67;;;0.90;;
71679;SDS011;59512;42.662;23.254;2023-04-01T16:03:34;5.33;;;1.97;;
71679;SDS011;59512;42.662;23.254;2023-04-01T16:06:20;6.38;;;1.63;;
71679;SDS011;59512;42.662;23.254;2023-04-01T16:11:43;5.70;;;2.05;;
71679;SDS011;59512;42.662;23.254;2023-04-01T16:19:53;5.40;;;1.70;;
71679;SDS011;59512;42.662;23.254;2023-04-01T16:25:01;4.50;;;1.60;;
71679;SDS011;59512;42.662;23.254;2023-04-01T16:27:42;4.47;;;1.52;;
71679;SDS011;59512;42.662;23.254;2023-04-01T16:32:57;4.85;;;1.60;;
71679;SDS011;59512;42.662;23.254;2023-04-01T16:35:30;4.30;;;1.60;;
71679;SDS011;59512;42.662;23.254;2023-04-01T16:38:09;5.07;;;1.85;;
71679;SDS011;59512;42.662;23.254;2023-04-01T16:43:30;5.87;;;1.60;;
71679;SDS011;59512;42.662;23.254;2023-04-01T16:57:50;2.50;;;0.87;;
71679;SDS011;59512;42.662;23.254;2023-04-01T17:00:27;4.10;;;1.17;;
71679;SDS011;59512;42.662;23.254;2023-04-01T17:08:22;3.72;;;1.05;;
71679;SDS011;59512;42.662;23.254;2023-04-01T17:10:57;4.77;;;1.30;;
71679;SDS011;59512;42.662;23.254;2023-04-01T17:13:49;5.70;;;1.90;;
71679;SDS011;59512;42.662;23.254;2023-04-01T17:19:04;4.50;;;1.70;;
71679;SDS011;59512;42.662;23.254;2023-04-01T17:26:52;5.32;;;2.60;;
71679;SDS011;59512;42.662;23.254;2023-04-01T17:29:52;5.30;;;2.30;;
71679;SDS011;59512;42.662;23.254;2023-04-01T17:32:50;6.78;;;3.15;;
71679;SDS011;59512;42.662;23.254;2023-04-01T17:38:09;6.78;;;3.17;;
71679;SDS011;59512;42.662;23.254;2023-04-01T17:52:25;6.43;;;2.95;;
71679;SDS011;59512;42.662;23.254;2023-04-01T18:08:17;5.63;;;2.60;;
71679;SDS011;59512;42.662;23.254;2023-04-01T18:11:12;5.93;;;2.30;;
71679;SDS011;59512;42.662;23.254;2023-04-01T18:22:43;10.27;;;6.28;;
71679;SDS011;59512;42.662;23.254;2023-04-01T18:30:32;7.90;;;4.28;;
71679;SDS011;59512;42.662;23.254;2023-04-01T18:38:27;10.23;;;5.53;;
71679;SDS011;59512;42.662;23.254;2023-04-01T18:41:06;9.05;;;5.15;;
71679;SDS011;59512;42.662;23.254;2023-04-01T18:51:51;5.60;;;2.87;;
71679;SDS011;59512;42.662;23.254;2023-04-01T18:54:26;5.78;;;2.40;;
71679;SDS011;59512;42.662;23.254;2023-04-01T18:57:04;5.32;;;2.45;;
71679;SDS011;59512;42.662;23.254;2023-04-01T18:59:45;5.78;;;2.70;;
71679;SDS011;59512;42.662;23.254;2023-04-01T19:08:17;6.75;;;2.50;;
71679;SDS011;59512;42.662;23.254;2023-04-01T19:10:50;6.65;;;2.75;;
71679;SDS011;59512;42.662;23.254;2023-04-01T19:21:37;6.63;;;2.72;;
71679;SDS011;59512;42.662;23.254;2023-04-01T19:24:39;5.63;;;2.30;;
71679;SDS011;59512;42.662;23.254;2023-04-01T19:32:25;4.93;;;2.10;;
71679;SDS011;59512;42.662;23.254;2023-04-01T19:37:36;5.30;;;2.00;;
71679;SDS011;59512;42.662;23.254;2023-04-01T19:42:52;5.45;;;2.22;;
71679;SDS011;59512;42.662;23.254;2023-04-01T19:45:23;8.23;;;2.22;;
71679;SDS011;59512;42.662;23.254;2023-04-01T19:48:25;4.70;;;2.30;;
71679;SDS011;59512;42.662;23.254;2023-04-01T19:56:18;4.03;;;1.90;;
71679;SDS011;59512;42.662;23.254;2023-04-01T20:01:35;4.67;;;2.13;;
71679;SDS011;59512;42.662;23.254;2023-04-01T20:04:14;4.88;;;2.10;;
71679;SDS011;59512;42.662;23.254;2023-04-01T20:14:50;4.57;;;2.00;;
71679;SDS011;59512;42.662;23.254;2023-04-01T20:17:25;5.18;;;2.00;;
71679;SDS011;59512;42.662;23.254;2023-04-01T20:19:59;5.28;;;2.50;;
71679;SDS011;59512;42.662;23.254;2023-04-01T20:22:31;4.60;;;2.05;;
71679;SDS011;59512;42.662;23.254;2023-04-01T20:25:01;4.82;;;2.10;;
71679;SDS011;59512;42.662;23.254;2023-04-01T20:27:33;6.00;;;2.20;;
71679;SDS011;59512;42.662;23.254;2023-04-01T20:44:20;7.00;;;3.08;;
71679;SDS011;59512;42.662;23.254;2023-04-01T21:03:49;4.90;;;1.98;;
71679;SDS011;59512;42.662;23.254;2023-04-01T21:06:32;4.45;;;1.90;;
71679;SDS011;59512;42.662;23.254;2023-04-01T21:10:01;4.82;;;2.08;;
71679;SDS011;59512;42.662;23.254;2023-04-01T21:34:55;3.65;;;1.38;;
71679;SDS011;59512;42.662;23.254;2023-04-01T21:42:52;3.17;;;1.23;;
71679;SDS011;59512;42.662;23.254;2023-04-01T21:48:23;4.43;;;1.40;;
71679;SDS011;59512;42.662;23.254;2023-04-01T22:10:35;4.23;;;1.30;;
71679;SDS011;59512;42.662;23.254;2023-04-01T22:23:36;3.33;;;1.07;;
71679;SDS011;59512;42.662;23.254;2023-04-01T22:26:09;2.50;;;1.10;;
71679;SDS011;59512;42.662;23.254;2023-04-01T22:28:46;4.80;;;1.33;;
71679;SDS011;59512;42.662;23.254;2023-04-01T22:31:52;3.58;;;1.15;;
71679;SDS011;59512;42.662;23.254;2023-04-01T22:42:59;4.93;;;1.20;;
71679;SDS011;59512;42.662;23.254;2023-04-01T22:45:38;4.32;;;1.40;;
71679;SDS011;59512;42.662;23.254;2023-04-01T22:51:18;4.50;;;1.17;;
71679;SDS011;59512;42.662;23.254;2023-04-01T22:56:33;3.45;;;1.10;;
71679;SDS011;59512;42.662;23.254;2023-04-01T22:59:06;4.32;;;1.10;;
71679;SDS011;59512;42.662;23.254;2023-04-01T23:01:34;4.60;;;1.30;;
71679;SDS011;59512;42.662;23.254;2023-04-01T23:04:09;4.57;;;1.37;;
71679;SDS011;59512;42.662;23.254;2023-04-01T23:06:38;5.38;;;1.38;;
71679;SDS011;59512;42.662;23.254;2023-04-01T23:22:15;4.75;;;1.38;;
71679;SDS011;59512;42.662;23.254;2023-04-01T23:24:50;2.65;;;1.00;;
71679;SDS011;59512;42.662;23.254;2023-04-01T23:27:23;2.72;;;0.90;;
71679;SDS011;59512;42.662;23.254;2023-04-01T23:29:56;2.87;;;0.93;;
71679;SDS011;59512;42.662;23.254;2023-04-01T23:32:22;3.05;;;0.93;;
71679;SDS011;59512;42.662;23.254;2023-04-01T23:34:51;2.57;;;0.80;;
71679;SDS011;59512;42.662;23.254;2023-04-01T23:37:18;2.67;;;0.90;;
71679;SDS011;59512;42.662;23.254;2023-04-01T23:39:45;4.38;;;1.20;;
71679;SDS011;59512;42.662;23.254;2023-04-01T23:42:18;2.90;;;0.90;;
71679;SDS011;59512;42.662;23.254;2023-04-01T23:44:49;3.95;;;1.00;;
71679;SDS011;59512;42.662;23.254;2023-04-01T23:47:17;3.23;;;1.00;;
71679;SDS011;59512;42.662;23.254;2023-04-01T23:49:46;3.22;;;1.00;;
71679;SDS011;59512;42.662;23.254;2023-04-01T23:52:24;2.28;;;0.80;;
71679;SDS011;59512;42.662;23.254;2023-04-01T23:55:13;3.75;;;1.00;;
71679;SDS011;59512;42.662;23.254;2023-04-01T23:57:37;3.90;;;1.10;;
